sensor_id;sensor_type;location;lat;lon;timestamp;pressure;altitude;pressure_sealevel;temperature;humidity
64862;BME280;62652;42.274;-71.436;2023-01-29T00:00:01;101740.0;;;5.0;55.5
64862;BME280;62652;42.274;-71.436;2023-01-29T00:01:02;101750.0;;;5.0;57.4
64862;BME280;62652;42.274;-71.436;2023-01-29T00:02:01;101750.0;;;4.8888888888888875;57.9
64862;BME280;62652;42.274;-71.436;2023-01-29T00:03:00;101750.0;;;4.777777777777779;58.9
64862;BME280;62652;42.274;-71.436;2023-01-29T00:04:00;101750.0;;;4.777777777777779;59.0
64862;BME280;62652;42.274;-71.436;2023-01-29T00:05:01;101750.0;;;4.722222222222222;60.0
64862;BME280;62652;42.274;-71.436;2023-01-29T00:06:04;101750.0;;;4.722222222222222;60.1
64862;BME280;62652;42.274;-71.436;2023-01-29T00:07:00;101750.0;;;4.722222222222222;60.1
64862;BME280;62652;42.274;-71.436;2023-01-29T00:08:01;101750.0;;;4.777777777777779;58.6
64862;BME280;62652;42.274;-71.436;2023-01-29T00:09:01;101760.0;;;4.61111111111111;60.1
64862;BME280;62652;42.274;-71.436;2023-01-29T00:10:01;101760.0;;;4.500000000000001;61.9
64862;BME280;62652;42.274;-71.436;2023-01-29T00:11:01;101760.0;;;4.2777777777777795;62.4
64862;BME280;62652;42.274;-71.436;2023-01-29T00:12:00;101760.0;;;4.2777777777777795;61.1
64862;BME280;62652;42.274;-71.436;2023-01-29T00:13:00;101760.0;;;4.2777777777777795;61.8
64862;BME280;62652;42.274;-71.436;2023-01-29T00:14:01;101760.0;;;4.222222222222223;62.3
64862;BME280;62652;42.274;-71.436;2023-01-29T00:15:00;101760.0;;;4.2777777777777795;61.6
64862;BME280;62652;42.274;-71.436;2023-01-29T00:16:01;101760.0;;;4.2777777777777795;61.9
64862;BME280;62652;42.274;-71.436;2023-01-29T00:17:00;101760.0;;;4.222222222222223;61.9
64862;BME280;62652;42.274;-71.436;2023-01-29T00:18:01;101770.0;;;4.222222222222223;61.5
64862;BME280;62652;42.274;-71.436;2023-01-29T00:19:01;101770.0;;;4.222222222222223;62.3
64862;BME280;62652;42.274;-71.436;2023-01-29T00:20:00;101770.0;;;4.222222222222223;62.5
64862;BME280;62652;42.274;-71.436;2023-01-29T00:21:00;101770.0;;;4.111111111111111;63.1
64862;BME280;62652;42.274;-71.436;2023-01-29T00:22:01;101770.0;;;4.111111111111111;62.5
64862;BME280;62652;42.274;-71.436;2023-01-29T00:23:00;101770.0;;;4.111111111111111;62.4
64862;BME280;62652;42.274;-71.436;2023-01-29T00:24:01;101770.0;;;4.222222222222223;61.8
64862;BME280;62652;42.274;-71.436;2023-01-29T00:25:00;101770.0;;;4.222222222222223;60.5
64862;BME280;62652;42.274;-71.436;2023-01-29T00:26:00;101770.0;;;4.2777777777777795;60.4
64862;BME280;62652;42.274;-71.436;2023-01-29T00:27:01;101780.0;;;4.222222222222223;61.4
64862;BME280;62652;42.274;-71.436;2023-01-29T00:28:00;101780.0;;;4.222222222222223;58.8
64862;BME280;62652;42.274;-71.436;2023-01-29T00:29:01;101780.0;;;4.222222222222223;59.6
64862;BME280;62652;42.274;-71.436;2023-01-29T00:30:00;101780.0;;;4.000000000000002;62.0
64862;BME280;62652;42.274;-71.436;2023-01-29T00:31:06;101780.0;;;4.000000000000002;61.4
64862;BME280;62652;42.274;-71.436;2023-01-29T00:32:01;101790.0;;;4.111111111111111;60.4
64862;BME280;62652;42.274;-71.436;2023-01-29T00:33:01;101790.0;;;4.111111111111111;60.1
64862;BME280;62652;42.274;-71.436;2023-01-29T00:34:00;101790.0;;;4.111111111111111;59.7
64862;BME280;62652;42.274;-71.436;2023-01-29T00:35:01;101790.0;;;4.111111111111111;59.7
64862;BME280;62652;42.274;-71.436;2023-01-29T00:36:01;101790.0;;;4.000000000000002;59.7
64862;BME280;62652;42.274;-71.436;2023-01-29T00:37:00;101790.0;;;4.000000000000002;60.2
64862;BME280;62652;42.274;-71.436;2023-01-29T00:38:01;101790.0;;;4.000000000000002;60.4
64862;BME280;62652;42.274;-71.436;2023-01-29T00:39:00;101790.0;;;4.111111111111111;59.7
64862;BME280;62652;42.274;-71.436;2023-01-29T00:40:00;101790.0;;;4.000000000000002;59.8
64862;BME280;62652;42.274;-71.436;2023-01-29T00:41:04;101780.0;;;4.000000000000002;59.8
64862;BME280;62652;42.274;-71.436;2023-01-29T00:42:00;101780.0;;;4.000000000000002;58.9
64862;BME280;62652;42.274;-71.436;2023-01-29T00:43:00;101790.0;;;4.111111111111111;59.2
64862;BME280;62652;42.274;-71.436;2023-01-29T00:44:01;101790.0;;;4.111111111111111;59.6
64862;BME280;62652;42.274;-71.436;2023-01-29T00:45:01;101790.0;;;4.111111111111111;61.2
64862;BME280;62652;42.274;-71.436;2023-01-29T00:46:01;101790.0;;;4.111111111111111;62.5
64862;BME280;62652;42.274;-71.436;2023-01-29T00:47:02;101800.0;;;4.000000000000002;61.9
64862;BME280;62652;42.274;-71.436;2023-01-29T00:48:01;101800.0;;;3.888888888888889;63.8
64862;BME280;62652;42.274;-71.436;2023-01-29T00:49:01;101800.0;;;3.7222222222222237;64.3
64862;BME280;62652;42.274;-71.436;2023-01-29T00:50:02;101810.0;;;3.7222222222222237;65.0
64862;BME280;62652;42.274;-71.436;2023-01-29T00:51:02;101810.0;;;3.611111111111111;64.9
64862;BME280;62652;42.274;-71.436;2023-01-29T00:52:01;101810.0;;;3.611111111111111;65.4
64862;BME280;62652;42.274;-71.436;2023-01-29T00:53:00;101810.0;;;3.611111111111111;65.5
64862;BME280;62652;42.274;-71.436;2023-01-29T00:54:01;101810.0;;;3.7222222222222237;65.6
64862;BME280;62652;42.274;-71.436;2023-01-29T00:55:02;101810.0;;;3.611111111111111;65.9
64862;BME280;62652;42.274;-71.436;2023-01-29T00:56:01;101810.0;;;3.611111111111111;65.8
64862;BME280;62652;42.274;-71.436;2023-01-29T00:57:01;101810.0;;;3.4999999999999982;66.8
64862;BME280;62652;42.274;-71.436;2023-01-29T00:58:01;101810.0;;;3.4999999999999982;66.4
64862;BME280;62652;42.274;-71.436;2023-01-29T00:59:01;101810.0;;;3.4999999999999982;66.0
64862;BME280;62652;42.274;-71.436;2023-01-29T01:00:02;101820.0;;;3.3888888888888897;66.2
64862;BME280;62652;42.274;-71.436;2023-01-29T01:01:01;101820.0;;;3.4999999999999982;67.1
64862;BME280;62652;42.274;-71.436;2023-01-29T01:02:01;101820.0;;;3.3888888888888897;67.0
64862;BME280;62652;42.274;-71.436;2023-01-29T01:03:00;101820.0;;;3.3888888888888897;66.6
64862;BME280;62652;42.274;-71.436;2023-01-29T01:04:00;101820.0;;;3.3888888888888897;67.5
64862;BME280;62652;42.274;-71.436;2023-01-29T01:05:00;101820.0;;;3.3888888888888897;67.9
64862;BME280;62652;42.274;-71.436;2023-01-29T01:06:02;101830.0;;;3.277777777777777;68.6
64862;BME280;62652;42.274;-71.436;2023-01-29T01:07:01;101820.0;;;3.277777777777777;68.1
64862;BME280;62652;42.274;-71.436;2023-01-29T01:08:01;101830.0;;;3.277777777777777;68.2
64862;BME280;62652;42.274;-71.436;2023-01-29T01:09:00;101830.0;;;3.3888888888888897;69.0
64862;BME280;62652;42.274;-71.436;2023-01-29T01:10:01;101830.0;;;3.277777777777777;68.8
64862;BME280;62652;42.274;-71.436;2023-01-29T01:11:03;101830.0;;;3.3888888888888897;68.2
64862;BME280;62652;42.274;-71.436;2023-01-29T01:12:00;101830.0;;;3.4999999999999982;67.7
64862;BME280;62652;42.274;-71.436;2023-01-29T01:13:03;101840.0;;;3.4999999999999982;67.2
64862;BME280;62652;42.274;-71.436;2023-01-29T01:14:00;101840.0;;;3.4999999999999982;67.4
64862;BME280;62652;42.274;-71.436;2023-01-29T01:15:00;101840.0;;;3.4999999999999982;66.9
64862;BME280;62652;42.274;-71.436;2023-01-29T01:16:01;101840.0;;;3.4999999999999982;67.2
64862;BME280;62652;42.274;-71.436;2023-01-29T01:17:01;101840.0;;;3.4999999999999982;66.4
64862;BME280;62652;42.274;-71.436;2023-01-29T01:18:01;101840.0;;;3.611111111111111;65.4
64862;BME280;62652;42.274;-71.436;2023-01-29T01:19:02;101840.0;;;3.611111111111111;65.6
64862;BME280;62652;42.274;-71.436;2023-01-29T01:20:00;101840.0;;;3.7222222222222237;64.1
64862;BME280;62652;42.274;-71.436;2023-01-29T01:21:01;101840.0;;;3.7777777777777763;63.2
64862;BME280;62652;42.274;-71.436;2023-01-29T01:22:01;101840.0;;;3.888888888888889;63.1
64862;BME280;62652;42.274;-71.436;2023-01-29T01:23:02;101850.0;;;3.888888888888889;63.0
64862;BME280;62652;42.274;-71.436;2023-01-29T01:24:00;101850.0;;;3.888888888888889;63.1
64862;BME280;62652;42.274;-71.436;2023-01-29T01:25:01;101850.0;;;3.888888888888889;64.2
64862;BME280;62652;42.274;-71.436;2023-01-29T01:26:01;101850.0;;;4.000000000000002;63.0
64862;BME280;62652;42.274;-71.436;2023-01-29T01:27:00;101860.0;;;4.000000000000002;63.4
64862;BME280;62652;42.274;-71.436;2023-01-29T01:28:01;101850.0;;;3.888888888888889;64.1
64862;BME280;62652;42.274;-71.436;2023-01-29T01:29:00;101850.0;;;3.888888888888889;64.4
64862;BME280;62652;42.274;-71.436;2023-01-29T01:30:00;101850.0;;;3.7777777777777763;65.4
64862;BME280;62652;42.274;-71.436;2023-01-29T01:31:07;101850.0;;;3.7777777777777763;65.6
64862;BME280;62652;42.274;-71.436;2023-01-29T01:32:01;101850.0;;;3.7777777777777763;66.4
64862;BME280;62652;42.274;-71.436;2023-01-29T01:33:01;101860.0;;;3.7222222222222237;68.8
64862;BME280;62652;42.274;-71.436;2023-01-29T01:34:01;101860.0;;;3.611111111111111;68.5
64862;BME280;62652;42.274;-71.436;2023-01-29T01:35:00;101860.0;;;3.4999999999999982;69.5
64862;BME280;62652;42.274;-71.436;2023-01-29T01:36:01;101860.0;;;3.3888888888888897;70.5
64862;BME280;62652;42.274;-71.436;2023-01-29T01:37:01;101860.0;;;3.3888888888888897;70.1
64862;BME280;62652;42.274;-71.436;2023-01-29T01:38:00;101860.0;;;3.4999999999999982;70.2
64862;BME280;62652;42.274;-71.436;2023-01-29T01:39:01;101860.0;;;3.3888888888888897;71.2
64862;BME280;62652;42.274;-71.436;2023-01-29T01:40:01;101860.0;;;3.3888888888888897;70.8
64862;BME280;62652;42.274;-71.436;2023-01-29T01:41:00;101870.0;;;3.3888888888888897;71.3
64862;BME280;62652;42.274;-71.436;2023-01-29T01:42:00;101860.0;;;3.277777777777777;71.9
64862;BME280;62652;42.274;-71.436;2023-01-29T01:43:01;101870.0;;;3.3888888888888897;71.6
64862;BME280;62652;42.274;-71.436;2023-01-29T01:44:03;101870.0;;;3.4999999999999982;71.0
64862;BME280;62652;42.274;-71.436;2023-01-29T01:45:03;101860.0;;;3.3888888888888897;70.6
64862;BME280;62652;42.274;-71.436;2023-01-29T01:46:00;101860.0;;;3.3888888888888897;70.8
64862;BME280;62652;42.274;-71.436;2023-01-29T01:47:01;101860.0;;;3.277777777777777;71.1
64862;BME280;62652;42.274;-71.436;2023-01-29T01:48:04;101860.0;;;3.3888888888888897;70.6
64862;BME280;62652;42.274;-71.436;2023-01-29T01:49:06;101860.0;;;3.3888888888888897;69.9
64862;BME280;62652;42.274;-71.436;2023-01-29T01:50:06;101860.0;;;3.3888888888888897;70.7
64862;BME280;62652;42.274;-71.436;2023-01-29T01:51:04;101860.0;;;3.3888888888888897;71.2
64862;BME280;62652;42.274;-71.436;2023-01-29T01:52:01;101860.0;;;3.3888888888888897;71.3
64862;BME280;62652;42.274;-71.436;2023-01-29T01:53:04;101870.0;;;3.4999999999999982;71.4
64862;BME280;62652;42.274;-71.436;2023-01-29T01:54:05;101870.0;;;3.3888888888888897;70.7
64862;BME280;62652;42.274;-71.436;2023-01-29T01:55:01;101870.0;;;3.3888888888888897;71.0
64862;BME280;62652;42.274;-71.436;2023-01-29T01:56:03;101870.0;;;3.277777777777777;71.1
64862;BME280;62652;42.274;-71.436;2023-01-29T01:57:05;101870.0;;;3.277777777777777;69.1
64862;BME280;62652;42.274;-71.436;2023-01-29T01:58:06;101870.0;;;3.2222222222222205;71.5
64862;BME280;62652;42.274;-71.436;2023-01-29T01:59:00;101860.0;;;3.2222222222222205;71.1
64862;BME280;62652;42.274;-71.436;2023-01-29T02:00:05;101860.0;;;3.2222222222222205;70.7
64862;BME280;62652;42.274;-71.436;2023-01-29T02:01:02;101870.0;;;3.2222222222222205;71.6
64862;BME280;62652;42.274;-71.436;2023-01-29T02:02:01;101860.0;;;3.2222222222222205;71.6
64862;BME280;62652;42.274;-71.436;2023-01-29T02:03:01;101870.0;;;3.277777777777777;70.3
64862;BME280;62652;42.274;-71.436;2023-01-29T02:04:04;101870.0;;;3.277777777777777;71.4
64862;BME280;62652;42.274;-71.436;2023-01-29T02:05:01;101870.0;;;3.277777777777777;72.4
64862;BME280;62652;42.274;-71.436;2023-01-29T02:06:01;101870.0;;;3.2222222222222205;71.5
64862;BME280;62652;42.274;-71.436;2023-01-29T02:07:02;101870.0;;;3.2222222222222205;72.6
64862;BME280;62652;42.274;-71.436;2023-01-29T02:08:01;101880.0;;;3.111111111111112;73.2
64862;BME280;62652;42.274;-71.436;2023-01-29T02:09:04;101880.0;;;3.111111111111112;72.8
64862;BME280;62652;42.274;-71.436;2023-01-29T02:10:06;101880.0;;;3.111111111111112;72.0
64862;BME280;62652;42.274;-71.436;2023-01-29T02:11:00;101890.0;;;3.111111111111112;73.3
64862;BME280;62652;42.274;-71.436;2023-01-29T02:12:02;101890.0;;;3.111111111111112;72.7
64862;BME280;62652;42.274;-71.436;2023-01-29T02:13:00;101890.0;;;3.2222222222222205;73.4
64862;BME280;62652;42.274;-71.436;2023-01-29T02:14:01;101890.0;;;3.2222222222222205;73.5
64862;BME280;62652;42.274;-71.436;2023-01-29T02:15:01;101890.0;;;3.111111111111112;73.2
64862;BME280;62652;42.274;-71.436;2023-01-29T02:16:00;101890.0;;;3.111111111111112;74.5
64862;BME280;62652;42.274;-71.436;2023-01-29T02:17:01;101890.0;;;2.999999999999999;76.0
64862;BME280;62652;42.274;-71.436;2023-01-29T02:18:01;101890.0;;;2.999999999999999;75.8
64862;BME280;62652;42.274;-71.436;2023-01-29T02:19:01;101890.0;;;2.999999999999999;72.7
64862;BME280;62652;42.274;-71.436;2023-01-29T02:20:06;101900.0;;;3.111111111111112;73.3
64862;BME280;62652;42.274;-71.436;2023-01-29T02:21:13;101900.0;;;3.111111111111112;75.2
64862;BME280;62652;42.274;-71.436;2023-01-29T02:22:18;101910.0;;;3.111111111111112;75.6
64862;BME280;62652;42.274;-71.436;2023-01-29T02:23:17;101900.0;;;3.2222222222222205;71.8
64862;BME280;62652;42.274;-71.436;2023-01-29T02:24:17;101900.0;;;3.2222222222222205;71.8
64862;BME280;62652;42.274;-71.436;2023-01-29T02:25:04;101900.0;;;3.2222222222222205;72.2
64862;BME280;62652;42.274;-71.436;2023-01-29T02:27:06;101890.0;;;3.277777777777777;69.7
64862;BME280;62652;42.274;-71.436;2023-01-29T02:28:10;101900.0;;;3.3888888888888897;68.3
64862;BME280;62652;42.274;-71.436;2023-01-29T02:29:06;101900.0;;;3.611111111111111;67.8
64862;BME280;62652;42.274;-71.436;2023-01-29T02:30:04;101890.0;;;3.611111111111111;69.1
64862;BME280;62652;42.274;-71.436;2023-01-29T02:31:06;101890.0;;;3.4999999999999982;69.3
64862;BME280;62652;42.274;-71.436;2023-01-29T02:32:12;101890.0;;;3.4999999999999982;70.1
64862;BME280;62652;42.274;-71.436;2023-01-29T02:33:06;101900.0;;;3.3888888888888897;71.7
64862;BME280;62652;42.274;-71.436;2023-01-29T02:34:10;101900.0;;;3.4999999999999982;71.7
64862;BME280;62652;42.274;-71.436;2023-01-29T02:35:10;101900.0;;;3.4999999999999982;71.9
64862;BME280;62652;42.274;-71.436;2023-01-29T02:36:08;101900.0;;;3.4999999999999982;72.2
64862;BME280;62652;42.274;-71.436;2023-01-29T02:37:06;101910.0;;;3.3888888888888897;72.5
64862;BME280;62652;42.274;-71.436;2023-01-29T02:38:07;101910.0;;;3.277777777777777;72.1
64862;BME280;62652;42.274;-71.436;2023-01-29T02:39:11;101910.0;;;3.277777777777777;71.7
64862;BME280;62652;42.274;-71.436;2023-01-29T02:40:06;101910.0;;;3.2222222222222205;71.4
64862;BME280;62652;42.274;-71.436;2023-01-29T02:41:04;101900.0;;;3.2222222222222205;70.6
64862;BME280;62652;42.274;-71.436;2023-01-29T02:42:07;101910.0;;;3.277777777777777;71.3
64862;BME280;62652;42.274;-71.436;2023-01-29T02:43:07;101910.0;;;3.3888888888888897;70.2
64862;BME280;62652;42.274;-71.436;2023-01-29T02:44:05;101910.0;;;3.277777777777777;70.5
64862;BME280;62652;42.274;-71.436;2023-01-29T02:45:05;101910.0;;;3.4999999999999982;69.2
64862;BME280;62652;42.274;-71.436;2023-01-29T02:46:06;101910.0;;;3.611111111111111;68.8
64862;BME280;62652;42.274;-71.436;2023-01-29T02:47:04;101910.0;;;3.7222222222222237;66.1
64862;BME280;62652;42.274;-71.436;2023-01-29T02:48:01;101910.0;;;3.7222222222222237;66.0
64862;BME280;62652;42.274;-71.436;2023-01-29T02:49:07;101910.0;;;3.7222222222222237;67.3
64862;BME280;62652;42.274;-71.436;2023-01-29T02:50:09;101910.0;;;3.7222222222222237;67.3
64862;BME280;62652;42.274;-71.436;2023-01-29T02:51:04;101910.0;;;3.7222222222222237;66.7
64862;BME280;62652;42.274;-71.436;2023-01-29T02:52:05;101910.0;;;3.7777777777777763;68.8
64862;BME280;62652;42.274;-71.436;2023-01-29T02:53:05;101900.0;;;3.7777777777777763;68.6
64862;BME280;62652;42.274;-71.436;2023-01-29T02:54:03;101910.0;;;3.7777777777777763;68.8
64862;BME280;62652;42.274;-71.436;2023-01-29T02:55:06;101900.0;;;3.7222222222222237;68.7
64862;BME280;62652;42.274;-71.436;2023-01-29T02:56:06;101900.0;;;3.611111111111111;68.4
64862;BME280;62652;42.274;-71.436;2023-01-29T02:57:07;101900.0;;;3.611111111111111;67.5
64862;BME280;62652;42.274;-71.436;2023-01-29T02:58:06;101900.0;;;3.611111111111111;68.7
64862;BME280;62652;42.274;-71.436;2023-01-29T02:59:07;101900.0;;;3.4999999999999982;69.1
64862;BME280;62652;42.274;-71.436;2023-01-29T03:00:06;101910.0;;;3.4999999999999982;69.1
64862;BME280;62652;42.274;-71.436;2023-01-29T03:01:08;101900.0;;;3.4999999999999982;68.5
64862;BME280;62652;42.274;-71.436;2023-01-29T03:02:03;101910.0;;;3.4999999999999982;68.5
64862;BME280;62652;42.274;-71.436;2023-01-29T03:03:06;101900.0;;;3.4999999999999982;69.1
64862;BME280;62652;42.274;-71.436;2023-01-29T03:04:05;101910.0;;;3.4999999999999982;69.3
64862;BME280;62652;42.274;-71.436;2023-01-29T03:05:05;101910.0;;;3.4999999999999982;70.2
64862;BME280;62652;42.274;-71.436;2023-01-29T03:06:05;101900.0;;;3.4999999999999982;70.3
64862;BME280;62652;42.274;-71.436;2023-01-29T03:07:04;101910.0;;;3.611111111111111;69.8
64862;BME280;62652;42.274;-71.436;2023-01-29T03:08:05;101910.0;;;3.4999999999999982;70.4
64862;BME280;62652;42.274;-71.436;2023-01-29T03:09:04;101920.0;;;3.3888888888888897;71.1
64862;BME280;62652;42.274;-71.436;2023-01-29T03:10:03;101910.0;;;3.4999999999999982;70.4
64862;BME280;62652;42.274;-71.436;2023-01-29T03:11:03;101910.0;;;3.4999999999999982;71.7
64862;BME280;62652;42.274;-71.436;2023-01-29T03:12:06;101910.0;;;3.277777777777777;73.6
64862;BME280;62652;42.274;-71.436;2023-01-29T03:13:06;101910.0;;;3.277777777777777;74.2
64862;BME280;62652;42.274;-71.436;2023-01-29T03:14:06;101910.0;;;3.2222222222222205;75.1
64862;BME280;62652;42.274;-71.436;2023-01-29T03:15:04;101910.0;;;3.111111111111112;75.5
64862;BME280;62652;42.274;-71.436;2023-01-29T03:16:05;101910.0;;;3.111111111111112;73.1
64862;BME280;62652;42.274;-71.436;2023-01-29T03:17:01;101910.0;;;3.111111111111112;75.1
64862;BME280;62652;42.274;-71.436;2023-01-29T03:18:05;101900.0;;;3.111111111111112;75.5
64862;BME280;62652;42.274;-71.436;2023-01-29T03:19:04;101910.0;;;3.111111111111112;74.2
64862;BME280;62652;42.274;-71.436;2023-01-29T03:20:02;101900.0;;;3.2222222222222205;73.9
64862;BME280;62652;42.274;-71.436;2023-01-29T03:21:04;101910.0;;;3.2222222222222205;74.2
64862;BME280;62652;42.274;-71.436;2023-01-29T03:22:03;101900.0;;;3.277777777777777;72.8
64862;BME280;62652;42.274;-71.436;2023-01-29T03:23:05;101900.0;;;3.277777777777777;73.1
64862;BME280;62652;42.274;-71.436;2023-01-29T03:24:03;101910.0;;;3.277777777777777;72.6
64862;BME280;62652;42.274;-71.436;2023-01-29T03:25:02;101910.0;;;3.277777777777777;72.5
64862;BME280;62652;42.274;-71.436;2023-01-29T03:26:00;101910.0;;;3.277777777777777;72.4
64862;BME280;62652;42.274;-71.436;2023-01-29T03:27:05;101910.0;;;3.277777777777777;72.6
64862;BME280;62652;42.274;-71.436;2023-01-29T03:28:03;101910.0;;;3.3888888888888897;72.8
64862;BME280;62652;42.274;-71.436;2023-01-29T03:29:02;101910.0;;;3.277777777777777;71.6
64862;BME280;62652;42.274;-71.436;2023-01-29T03:30:03;101910.0;;;3.277777777777777;72.8
64862;BME280;62652;42.274;-71.436;2023-01-29T03:31:04;101910.0;;;3.2222222222222205;73.8
64862;BME280;62652;42.274;-71.436;2023-01-29T03:32:01;101900.0;;;3.2222222222222205;72.7
64862;BME280;62652;42.274;-71.436;2023-01-29T03:33:05;101910.0;;;3.2222222222222205;73.9
64862;BME280;62652;42.274;-71.436;2023-01-29T03:34:06;101910.0;;;3.2222222222222205;74.2
64862;BME280;62652;42.274;-71.436;2023-01-29T03:35:02;101900.0;;;3.111111111111112;74.6
64862;BME280;62652;42.274;-71.436;2023-01-29T03:36:06;101910.0;;;3.111111111111112;75.6
64862;BME280;62652;42.274;-71.436;2023-01-29T03:37:03;101910.0;;;2.999999999999999;75.6
64862;BME280;62652;42.274;-71.436;2023-01-29T03:38:02;101910.0;;;2.999999999999999;76.4
64862;BME280;62652;42.274;-71.436;2023-01-29T03:39:00;101910.0;;;2.999999999999999;76.8
64862;BME280;62652;42.274;-71.436;2023-01-29T03:40:02;101910.0;;;2.8888888888888906;76.8
64862;BME280;62652;42.274;-71.436;2023-01-29T03:41:04;101910.0;;;2.8888888888888906;76.9
64862;BME280;62652;42.274;-71.436;2023-01-29T03:42:07;101910.0;;;2.8888888888888906;78.2
64862;BME280;62652;42.274;-71.436;2023-01-29T03:43:07;101910.0;;;2.8888888888888906;78.8
64862;BME280;62652;42.274;-71.436;2023-01-29T03:44:11;101910.0;;;2.8888888888888906;78.9
64862;BME280;62652;42.274;-71.436;2023-01-29T03:45:07;101910.0;;;2.8888888888888906;77.5
64862;BME280;62652;42.274;-71.436;2023-01-29T03:46:05;101910.0;;;2.7777777777777777;77.8
64862;BME280;62652;42.274;-71.436;2023-01-29T03:47:10;101910.0;;;2.7777777777777777;76.9
64862;BME280;62652;42.274;-71.436;2023-01-29T03:48:05;101910.0;;;2.7777777777777777;76.9
64862;BME280;62652;42.274;-71.436;2023-01-29T03:49:07;101910.0;;;2.7777777777777777;76.8
64862;BME280;62652;42.274;-71.436;2023-01-29T03:50:04;101910.0;;;2.7777777777777777;75.6
64862;BME280;62652;42.274;-71.436;2023-01-29T03:51:11;101910.0;;;2.7777777777777777;76.6
64862;BME280;62652;42.274;-71.436;2023-01-29T03:52:06;101910.0;;;2.7777777777777777;75.4
64862;BME280;62652;42.274;-71.436;2023-01-29T03:53:05;101910.0;;;2.7777777777777777;75.1
64862;BME280;62652;42.274;-71.436;2023-01-29T03:54:06;101920.0;;;2.7777777777777777;75.9
64862;BME280;62652;42.274;-71.436;2023-01-29T03:55:07;101910.0;;;2.7777777777777777;77.7
64862;BME280;62652;42.274;-71.436;2023-01-29T03:56:04;101910.0;;;2.7777777777777777;77.7
64862;BME280;62652;42.274;-71.436;2023-01-29T03:57:04;101910.0;;;2.7777777777777777;77.1
64862;BME280;62652;42.274;-71.436;2023-01-29T03:58:08;101910.0;;;2.7222222222222214;77.8
64862;BME280;62652;42.274;-71.436;2023-01-29T03:59:05;101910.0;;;2.6111111111111125;79.6
64862;BME280;62652;42.274;-71.436;2023-01-29T04:00:07;101920.0;;;2.7222222222222214;79.4
64862;BME280;62652;42.274;-71.436;2023-01-29T04:01:02;101920.0;;;2.7222222222222214;77.9
64862;BME280;62652;42.274;-71.436;2023-01-29T04:02:04;101920.0;;;2.7222222222222214;78.6
64862;BME280;62652;42.274;-71.436;2023-01-29T04:03:06;101920.0;;;2.7222222222222214;78.4
64862;BME280;62652;42.274;-71.436;2023-01-29T04:04:04;101920.0;;;2.7222222222222214;78.1
64862;BME280;62652;42.274;-71.436;2023-01-29T04:05:04;101920.0;;;2.6111111111111125;78.6
64862;BME280;62652;42.274;-71.436;2023-01-29T04:06:08;101920.0;;;2.5;79.1
64862;BME280;62652;42.274;-71.436;2023-01-29T04:07:04;101920.0;;;2.6111111111111125;79.5
64862;BME280;62652;42.274;-71.436;2023-01-29T04:08:06;101920.0;;;2.6111111111111125;79.1
64862;BME280;62652;42.274;-71.436;2023-01-29T04:09:04;101920.0;;;2.5;79.4
64862;BME280;62652;42.274;-71.436;2023-01-29T04:10:03;101930.0;;;2.5;79.4
64862;BME280;62652;42.274;-71.436;2023-01-29T04:11:06;101930.0;;;2.5;79.2
64862;BME280;62652;42.274;-71.436;2023-01-29T04:12:05;101930.0;;;2.5;79.1
64862;BME280;62652;42.274;-71.436;2023-01-29T04:13:05;101930.0;;;2.5;78.6
64862;BME280;62652;42.274;-71.436;2023-01-29T04:14:01;101930.0;;;2.5;79.4
64862;BME280;62652;42.274;-71.436;2023-01-29T04:15:01;101930.0;;;2.5;80.0
64862;BME280;62652;42.274;-71.436;2023-01-29T04:16:04;101930.0;;;2.5;79.9
64862;BME280;62652;42.274;-71.436;2023-01-29T04:17:07;101930.0;;;2.5;80.4
64862;BME280;62652;42.274;-71.436;2023-01-29T04:18:02;101930.0;;;2.5;80.3
64862;BME280;62652;42.274;-71.436;2023-01-29T04:19:01;101930.0;;;2.6111111111111125;79.4
64862;BME280;62652;42.274;-71.436;2023-01-29T04:20:01;101930.0;;;2.6111111111111125;78.4
64862;BME280;62652;42.274;-71.436;2023-01-29T04:21:01;101930.0;;;2.6111111111111125;77.6
64862;BME280;62652;42.274;-71.436;2023-01-29T04:22:05;101930.0;;;2.6111111111111125;77.4
64862;BME280;62652;42.274;-71.436;2023-01-29T04:23:00;101930.0;;;2.5;77.9
64862;BME280;62652;42.274;-71.436;2023-01-29T04:24:01;101930.0;;;2.6111111111111125;76.5
64862;BME280;62652;42.274;-71.436;2023-01-29T04:25:03;101940.0;;;2.5;77.5
64862;BME280;62652;42.274;-71.436;2023-01-29T04:26:14;101940.0;;;2.5;77.1
64862;BME280;62652;42.274;-71.436;2023-01-29T04:27:13;101940.0;;;2.5;77.3
64862;BME280;62652;42.274;-71.436;2023-01-29T04:28:05;101940.0;;;2.5;77.4
64862;BME280;62652;42.274;-71.436;2023-01-29T04:29:14;101940.0;;;2.5;78.6
64862;BME280;62652;42.274;-71.436;2023-01-29T04:30:08;101930.0;;;2.5;77.2
64862;BME280;62652;42.274;-71.436;2023-01-29T04:31:04;101940.0;;;2.2777777777777786;78.4
64862;BME280;62652;42.274;-71.436;2023-01-29T04:32:09;101940.0;;;2.2777777777777786;78.4
64862;BME280;62652;42.274;-71.436;2023-01-29T04:33:10;101940.0;;;2.2222222222222223;79.3